首页
METAR-TAF:

METAR-TAF

机场 :

尼古拉耶夫, 乌克兰

纬度: 47-03-29N, 经度: 031-55-15E, 海拔: 56米

当前天气观测

该预报发布于28分钟前的05:30 UTC
风速12节,风向东北,在之间变化
温度 2°C
湿度 93%
气压 1022 hPa
能见度10公里或以上
多云层高于1300英尺

METAR: UKON 010530Z 04006MPS 010V080 9999 BKN013 02/01 Q1022 R04/190070 NOSIG

时间: 07:58 (05:58 UTC)

预报

该预报发布于55分钟前的05:03 UTC
预报有效从01日的 06点(UTC)到 01日的 15点(UTC)
风速12节,风向东北,有时为25节阵风
能見度: 6000
散云层高于300英尺
多云层高于700英尺
散云层高于2000英尺, 积雨云.
短暂存在
从 01日的 06点(UTC)到 01日的 15点(UTC)
能見度: 2100
多云层高于400英尺
多云层高于1500英尺, 积雨云.
小阵雪, 轻雾

TAF: UKON 010503Z 0106/0115 05006G13MPS 6000 SCT003 BKN007 SCT020CB TX04/0112Z TN02/0106Z TEMPO 0106/0115 2100 -SHSN BR BKN004 BKN015CB

超过4000个机场的气象观测和天气预报(METAR&TAF报告)。

可查询的气象台以黄色和红色小点在地图上表示。

将鼠标移到小点上方,可查看气象台名称。

然后点击查看天气观测和预报。

如需切换地图:点击带黑十字的绿色按钮放大地图;点击带横线的绿色按钮缩小地图;或者点击绿色箭头查看邻近地区的地图。


METAR-TAF: